createdAt,value
2022-08-28T00:01:29.237Z,49.29
2022-08-28T00:03:57.378Z,49.50
2022-08-28T00:06:25.399Z,49.47
2022-08-28T00:08:53.401Z,49.72
2022-08-28T00:11:21.444Z,49.25
2022-08-28T00:13:49.522Z,49.50
2022-08-28T00:16:18.204Z,49.43
2022-08-28T00:18:47.670Z,49.50
2022-08-28T00:21:16.033Z,49.77
2022-08-28T00:23:44.117Z,49.37
2022-08-28T00:26:32.466Z,49.43
2022-08-28T00:28:59.496Z,49.75
2022-08-28T00:31:27.625Z,49.85
2022-08-28T00:33:57.328Z,49.80
2022-08-28T00:36:25.265Z,49.47
2022-08-28T00:38:53.247Z,49.76
2022-08-28T00:41:25.013Z,49.62
2022-08-28T00:44:07.658Z,49.40
2022-08-28T00:46:35.705Z,49.47
2022-08-28T00:49:05.046Z,49.77
2022-08-28T00:51:50.687Z,49.72
2022-08-28T00:54:19.167Z,49.57
2022-08-28T00:56:47.912Z,49.75
2022-08-28T00:59:17.572Z,49.79
2022-08-28T01:01:45.990Z,49.76
2022-08-28T01:04:16.020Z,49.81
2022-08-28T01:06:44.036Z,49.79
2022-08-28T01:09:13.097Z,49.93
2022-08-28T01:11:41.472Z,49.84
2022-08-28T01:14:09.742Z,49.85
2022-08-28T01:16:37.759Z,49.92
2022-08-28T01:19:05.781Z,49.73
2022-08-28T01:21:38.854Z,49.88
2022-08-28T01:24:09.716Z,50.10
2022-08-28T01:26:38.581Z,49.90
2022-08-28T01:29:08.515Z,49.73
2022-08-28T01:31:37.111Z,49.74
2022-08-28T01:34:05.209Z,50.05
2022-08-28T01:36:34.164Z,49.88
2022-08-28T01:39:06.755Z,49.69
2022-08-28T01:41:38.991Z,49.93
2022-08-28T01:44:07.020Z,50.00
2022-08-28T01:46:35.149Z,49.89
2022-08-28T01:49:03.235Z,49.50
2022-08-28T01:51:35.004Z,49.72
2022-08-28T01:54:06.150Z,49.71
2022-08-28T01:56:35.585Z,49.91
2022-08-28T01:59:05.149Z,49.75
2022-08-28T02:01:33.510Z,49.80
2022-08-28T02:04:01.669Z,50.07
2022-08-28T02:06:29.864Z,49.75
2022-08-28T02:08:57.875Z,49.71
2022-08-28T02:11:26.222Z,50.09
2022-08-28T02:13:56.348Z,49.84
2022-08-28T02:16:24.495Z,49.77
2022-08-28T02:18:52.567Z,50.21
2022-08-28T02:21:20.559Z,50.20
2022-08-28T02:23:48.594Z,49.86
2022-08-28T02:26:17.283Z,50.10
2022-08-28T02:28:45.344Z,49.89
2022-08-28T02:31:14.807Z,50.24
2022-08-28T02:33:44.698Z,50.35
2022-08-28T02:36:13.600Z,50.33
2022-08-28T02:38:41.617Z,49.85
2022-08-28T02:41:09.859Z,50.33
2022-08-28T02:43:37.853Z,49.86
2022-08-28T02:46:06.071Z,50.21
2022-08-28T02:48:36.781Z,50.28
2022-08-28T02:51:06.154Z,50.35
2022-08-28T02:53:34.145Z,49.95
2022-08-28T02:56:03.008Z,49.95
2022-08-28T02:58:32.806Z,49.95
2022-08-28T03:01:01.756Z,49.96
2022-08-28T03:03:31.117Z,50.01
2022-08-28T03:06:00.952Z,50.37
2022-08-28T03:08:29.147Z,50.14
2022-08-28T03:10:57.131Z,50.40
2022-08-28T03:13:25.170Z,50.07
2022-08-28T03:15:56.057Z,50.08
2022-08-28T03:18:24.515Z,50.44
2022-08-28T03:20:53.604Z,50.30
2022-08-28T03:23:28.188Z,50.58
2022-08-28T03:25:57.724Z,50.45
2022-08-28T03:28:25.832Z,50.26
2022-08-28T03:30:54.191Z,50.17
2022-08-28T03:33:22.304Z,50.61
2022-08-28T03:35:50.413Z,50.57
2022-08-28T03:38:18.567Z,50.18
2022-08-28T03:40:47.964Z,50.14
2022-08-28T03:43:16.772Z,50.62
2022-08-28T03:45:53.194Z,50.37
2022-08-28T03:48:21.259Z,50.63
2022-08-28T03:50:49.288Z,50.33
2022-08-28T03:53:20.038Z,50.20
2022-08-28T03:55:49.492Z,50.73
2022-08-28T03:58:18.944Z,50.57
2022-08-28T04:00:47.446Z,50.43
2022-08-28T04:03:15.546Z,50.13
2022-08-28T04:05:43.907Z,50.58
2022-08-28T04:08:12.707Z,50.16
2022-08-28T04:10:40.958Z,50.67
2022-08-28T04:13:10.437Z,50.26
2022-08-28T04:15:38.434Z,50.22
2022-08-28T04:18:06.692Z,50.22
2022-08-28T04:20:34.673Z,50.54
2022-08-28T04:23:03.538Z,50.60
2022-08-28T04:25:31.889Z,50.41
2022-08-28T04:28:01.038Z,50.42
2022-08-28T04:30:30.745Z,50.56
2022-08-28T04:32:59.514Z,50.17
2022-08-28T04:35:27.525Z,50.65
2022-08-28T04:37:58.731Z,50.45
2022-08-28T04:40:27.086Z,50.36
2022-08-28T04:42:55.128Z,50.24
2022-08-28T04:45:23.183Z,50.18
2022-08-28T04:47:52.563Z,50.33
2022-08-28T04:50:20.727Z,50.30
2022-08-28T04:52:48.726Z,50.15
2022-08-28T04:55:18.292Z,50.17
2022-08-28T04:58:01.865Z,50.33
2022-08-28T05:00:29.936Z,50.36
2022-08-28T05:02:59.407Z,50.34
2022-08-28T05:05:27.497Z,50.42
2022-08-28T05:07:55.558Z,50.55
2022-08-28T05:10:23.571Z,50.56
2022-08-28T05:12:51.588Z,50.46
2022-08-28T05:15:19.685Z,50.56
2022-08-28T05:17:48.219Z,50.11
2022-08-28T05:20:17.819Z,50.67
2022-08-28T05:22:45.854Z,50.53
2022-08-28T05:25:14.968Z,50.18
2022-08-28T05:27:42.996Z,50.61
2022-08-28T05:30:12.131Z,50.36
2022-08-28T05:32:40.127Z,50.55
2022-08-28T05:35:08.747Z,50.82
2022-08-28T05:37:38.192Z,50.50
2022-08-28T05:40:07.168Z,50.29
2022-08-28T05:42:38.884Z,50.25
2022-08-28T05:45:08.403Z,50.68
2022-08-28T05:47:36.502Z,50.51
2022-08-28T05:50:04.651Z,50.54
2022-08-28T05:52:32.646Z,50.70
2022-08-28T05:55:02.268Z,50.67
2022-08-28T05:57:30.777Z,50.90
2022-08-28T05:59:58.747Z,50.99
2022-08-28T06:02:26.793Z,50.99
2022-08-28T06:04:54.995Z,50.64
2022-08-28T06:07:22.908Z,50.56
2022-08-28T06:09:50.909Z,50.75
2022-08-28T06:12:20.406Z,50.59
2022-08-28T06:14:48.356Z,50.70
2022-08-28T06:17:17.353Z,51.05
2022-08-28T06:19:51.599Z,50.67
2022-08-28T06:22:20.642Z,50.77
2022-08-28T06:24:48.656Z,51.27
2022-08-28T06:27:16.634Z,51.13
2022-08-28T06:29:45.932Z,51.01
2022-08-28T06:32:14.028Z,51.13
2022-08-28T06:34:42.047Z,51.20
2022-08-28T06:37:10.360Z,51.00
2022-08-28T06:39:38.385Z,51.14
2022-08-28T06:42:06.937Z,50.89
2022-08-28T06:44:34.941Z,51.16
2022-08-28T06:47:04.419Z,51.24
2022-08-28T06:49:32.405Z,51.08
2022-08-28T06:52:00.441Z,51.04
2022-08-28T06:54:31.083Z,50.95
2022-08-28T06:56:59.121Z,50.91
2022-08-28T06:59:27.366Z,50.97
2022-08-28T07:01:55.784Z,51.00
2022-08-28T07:04:25.285Z,51.20
2022-08-28T07:06:54.797Z,51.36
2022-08-28T07:09:23.073Z,51.38
2022-08-28T07:11:51.141Z,51.63
2022-08-28T07:14:19.188Z,51.48
2022-08-28T07:16:47.262Z,51.89
2022-08-28T07:19:15.460Z,51.78
2022-08-28T07:21:46.008Z,51.70
2022-08-28T07:24:14.742Z,51.68
2022-08-28T07:26:43.517Z,51.87
2022-08-28T07:29:11.861Z,51.82
2022-08-28T07:31:40.976Z,51.78
2022-08-28T07:34:09.514Z,51.74
2022-08-28T07:36:37.568Z,51.75
2022-08-28T07:39:07.058Z,51.94
2022-08-28T07:41:35.626Z,51.75
2022-08-28T07:44:21.678Z,51.85
2022-08-28T07:46:49.792Z,51.68
2022-08-28T07:49:17.829Z,51.51
2022-08-28T07:51:47.241Z,51.80
2022-08-28T07:54:18.154Z,52.08
2022-08-28T07:56:46.515Z,51.87
2022-08-28T07:59:16.745Z,51.87
2022-08-28T08:01:46.604Z,51.97
2022-08-28T08:04:15.968Z,52.01
2022-08-28T08:06:44.006Z,52.24
2022-08-28T08:09:14.650Z,51.97
2022-08-28T08:11:44.119Z,52.36
2022-08-28T08:14:12.449Z,52.01
2022-08-28T08:16:41.256Z,52.44
2022-08-28T08:19:10.402Z,52.40
2022-08-28T08:21:38.557Z,52.39
2022-08-28T08:24:06.939Z,51.88
2022-08-28T08:26:35.189Z,52.22
2022-08-28T08:29:04.740Z,52.02
2022-08-28T08:31:33.480Z,52.28
2022-08-28T08:34:04.297Z,52.38
2022-08-28T08:36:34.337Z,51.99
2022-08-28T08:39:02.429Z,52.34
2022-08-28T08:41:39.084Z,52.22
2022-08-28T08:44:10.492Z,52.47
2022-08-28T08:46:41.654Z,52.57
2022-08-28T08:49:14.055Z,52.28
2022-08-28T08:51:43.881Z,52.51
2022-08-28T08:54:13.209Z,52.26
2022-08-28T08:56:41.978Z,52.21
2022-08-28T08:59:21.442Z,52.24
2022-08-28T09:01:53.297Z,52.15
2022-08-28T09:04:27.108Z,52.54
2022-08-28T09:07:00.276Z,52.62
2022-08-28T09:09:30.166Z,52.28
2022-08-28T09:11:59.938Z,52.49
2022-08-28T09:14:35.079Z,52.75
2022-08-28T09:17:03.149Z,52.30
2022-08-28T09:19:31.229Z,52.79
2022-08-28T09:21:59.243Z,52.70
2022-08-28T09:24:28.433Z,52.75
2022-08-28T09:26:59.536Z,52.65
2022-08-28T09:29:32.172Z,52.82
2022-08-28T09:32:00.248Z,52.44
2022-08-28T09:34:36.716Z,52.76
2022-08-28T09:37:06.834Z,52.84
2022-08-28T09:39:35.711Z,52.50
2022-08-28T09:42:24.272Z,52.74
2022-08-28T09:45:02.298Z,52.57
2022-08-28T09:47:49.208Z,52.76
2022-08-28T09:50:35.241Z,53.04
2022-08-28T09:53:18.097Z,53.04
2022-08-28T09:55:52.099Z,52.65
2022-08-28T09:58:21.181Z,52.93
2022-08-28T10:00:54.212Z,53.20
2022-08-28T10:03:24.828Z,53.12
2022-08-28T10:05:59.308Z,53.19
2022-08-28T10:08:29.189Z,53.11
2022-08-28T10:10:58.432Z,52.76
2022-08-28T10:13:30.262Z,52.75
2022-08-28T10:16:15.273Z,52.78
2022-08-28T10:18:46.190Z,52.75
2022-08-28T10:21:16.436Z,53.23
2022-08-28T10:23:50.657Z,52.93
2022-08-28T10:26:26.444Z,52.91
2022-08-28T10:28:59.867Z,52.97
2022-08-28T10:31:31.709Z,52.93
2022-08-28T10:34:08.055Z,53.08
2022-08-28T10:36:36.684Z,53.18
2022-08-28T10:39:14.878Z,53.09
2022-08-28T10:41:44.977Z,53.22
2022-08-28T10:44:14.518Z,53.04
2022-08-28T10:46:45.727Z,52.87
2022-08-28T10:49:18.032Z,53.26
2022-08-28T10:51:47.107Z,53.02
2022-08-28T10:54:21.045Z,52.91
2022-08-28T10:56:56.561Z,53.20
2022-08-28T10:59:25.627Z,52.88
2022-08-28T11:01:55.122Z,53.06
2022-08-28T11:04:25.615Z,52.94
2022-08-28T11:06:54.498Z,53.15
2022-08-28T11:09:31.127Z,53.33
2022-08-28T11:12:01.976Z,53.29
2022-08-28T11:14:32.554Z,52.85
2022-08-28T11:17:03.153Z,52.89
2022-08-28T11:19:55.441Z,53.18
2022-08-28T11:22:24.605Z,53.11
2022-08-28T11:25:02.385Z,52.97
2022-08-28T11:27:33.849Z,53.06
2022-08-28T11:30:29.892Z,52.97
2022-08-28T11:33:06.716Z,52.74
2022-08-28T11:35:43.237Z,53.09
2022-08-28T11:38:12.768Z,52.66
2022-08-28T11:40:57.053Z,52.82
2022-08-28T11:43:39.962Z,52.91
2022-08-28T11:46:14.062Z,53.04
2022-08-28T11:48:52.828Z,52.97
2022-08-28T11:51:57.453Z,52.79
2022-08-28T11:54:41.695Z,52.91
2022-08-28T11:57:11.866Z,52.71
2022-08-28T12:00:07.888Z,52.71
2022-08-28T12:03:09.983Z,52.68
2022-08-28T12:05:50.008Z,52.75
2022-08-28T12:09:09.725Z,52.83
2022-08-28T12:12:00.392Z,52.59
2022-08-28T12:15:08.732Z,52.77
2022-08-28T12:17:50.590Z,52.70
2022-08-28T12:20:27.103Z,52.81
2022-08-28T12:22:59.420Z,52.86
2022-08-28T12:25:31.755Z,52.66
2022-08-28T12:28:01.164Z,52.33
2022-08-28T12:30:30.603Z,52.52
2022-08-28T12:33:03.989Z,52.44
2022-08-28T12:35:32.117Z,52.33
2022-08-28T12:38:02.881Z,52.10
2022-08-28T12:40:34.393Z,52.06
2022-08-28T12:43:04.253Z,52.55
2022-08-28T12:45:34.253Z,52.24
2022-08-28T12:48:03.145Z,52.12
2022-08-28T12:50:33.993Z,52.01
2022-08-28T12:53:04.500Z,51.92
2022-08-28T12:55:32.770Z,52.37
2022-08-28T12:58:00.851Z,51.93
2022-08-28T13:00:32.094Z,51.91
2022-08-28T13:03:00.171Z,51.67
2022-08-28T13:05:33.384Z,52.10
2022-08-28T13:08:04.127Z,52.06
2022-08-28T13:10:33.410Z,51.55
2022-08-28T13:13:05.663Z,51.52
2022-08-28T13:15:44.750Z,52.14
2022-08-28T13:18:13.664Z,51.67
2022-08-28T13:20:41.641Z,51.75
2022-08-28T13:23:17.717Z,51.93
2022-08-28T13:25:46.095Z,51.59
2022-08-28T13:28:15.065Z,51.68
2022-08-28T13:30:43.149Z,51.71
2022-08-28T13:33:20.512Z,51.38
2022-08-28T13:35:48.739Z,51.79
2022-08-28T13:38:18.711Z,51.42
2022-08-28T13:41:04.476Z,51.43
2022-08-28T13:43:44.231Z,51.43
2022-08-28T13:46:12.247Z,51.49
2022-08-28T13:48:40.275Z,51.83
2022-08-28T13:51:19.012Z,51.42
2022-08-28T13:53:50.695Z,51.63
2022-08-28T13:56:21.900Z,51.38
2022-08-28T13:58:57.461Z,51.63
2022-08-28T14:01:47.232Z,51.40
2022-08-28T14:04:14.467Z,51.31
2022-08-28T14:06:44.427Z,51.32
2022-08-28T14:09:15.422Z,50.98
2022-08-28T14:11:45.866Z,51.30
2022-08-28T14:14:13.856Z,51.25
2022-08-28T14:16:41.990Z,51.03
2022-08-28T14:19:09.999Z,51.07
2022-08-28T14:21:39.377Z,50.81
2022-08-28T14:24:07.955Z,51.03
2022-08-28T14:26:37.339Z,51.24
2022-08-28T14:29:06.410Z,51.27
2022-08-28T14:31:35.980Z,51.23
2022-08-28T14:34:04.539Z,51.17
2022-08-28T14:36:32.828Z,50.78
2022-08-28T14:39:06.007Z,51.25
2022-08-28T14:41:34.691Z,50.81
2022-08-28T14:44:04.396Z,51.07
2022-08-28T14:46:33.664Z,50.55
2022-08-28T14:49:02.589Z,50.70
2022-08-28T14:51:31.888Z,50.59
2022-08-28T14:53:59.969Z,50.79
2022-08-28T14:56:28.469Z,50.58
2022-08-28T14:59:00.019Z,50.62
2022-08-28T15:01:40.396Z,50.31
2022-08-28T15:04:10.048Z,50.46
2022-08-28T15:06:38.115Z,50.52
2022-08-28T15:09:06.235Z,50.12
2022-08-28T15:11:35.431Z,50.57
2022-08-28T15:14:03.459Z,50.39
2022-08-28T15:16:33.981Z,50.51
2022-08-28T15:19:02.560Z,50.06
2022-08-28T15:21:32.211Z,49.97
2022-08-28T15:24:00.899Z,50.03
2022-08-28T15:26:29.079Z,50.15
2022-08-28T15:29:02.216Z,49.79
2022-08-28T15:31:30.541Z,49.74
2022-08-28T15:34:06.405Z,50.05
2022-08-28T15:36:41.317Z,50.09
2022-08-28T15:39:41.506Z,49.89
2022-08-28T15:42:10.113Z,49.47
2022-08-28T15:44:38.154Z,49.76
2022-08-28T15:47:06.595Z,49.32
2022-08-28T15:49:43.584Z,49.53
2022-08-28T15:52:16.953Z,49.38
2022-08-28T15:54:45.024Z,49.71
2022-08-28T15:57:13.012Z,49.00
2022-08-28T15:59:50.503Z,49.50
2022-08-28T16:02:19.636Z,49.00
2022-08-28T16:04:49.259Z,49.53
2022-08-28T16:07:17.505Z,49.40
2022-08-28T16:09:45.769Z,48.94
2022-08-28T16:12:13.859Z,49.47
2022-08-28T16:14:41.902Z,49.03
2022-08-28T16:17:10.625Z,49.43
2022-08-28T16:19:59.314Z,48.95
2022-08-28T16:22:27.640Z,49.40
2022-08-28T16:24:55.667Z,48.78
2022-08-28T16:27:23.948Z,48.89
2022-08-28T16:29:52.803Z,49.02
2022-08-28T16:32:21.113Z,49.07
2022-08-28T16:34:49.181Z,48.89
2022-08-28T16:37:19.541Z,49.32
2022-08-28T16:39:49.661Z,49.19
2022-08-28T16:42:17.965Z,49.02
2022-08-28T16:44:45.978Z,49.28
2022-08-28T16:47:13.997Z,48.89
2022-08-28T16:49:42.046Z,49.36
2022-08-28T16:52:10.035Z,49.40
2022-08-28T16:54:48.764Z,49.29
2022-08-28T16:57:17.180Z,49.27
2022-08-28T16:59:45.333Z,49.29
2022-08-28T17:02:14.388Z,49.43
2022-08-28T17:04:43.813Z,49.13
2022-08-28T17:07:11.990Z,49.15
2022-08-28T17:09:41.466Z,49.41
2022-08-28T17:12:09.757Z,49.25
2022-08-28T17:14:39.661Z,49.20
2022-08-28T17:17:10.392Z,49.15
2022-08-28T17:19:38.511Z,49.28
2022-08-28T17:22:24.029Z,49.39
2022-08-28T17:24:58.824Z,49.63
2022-08-28T17:27:27.394Z,49.54
2022-08-28T17:29:55.393Z,49.73
2022-08-28T17:32:23.527Z,49.77
2022-08-28T17:34:51.557Z,49.43
2022-08-28T17:37:20.712Z,49.33
2022-08-28T17:39:50.061Z,49.85
2022-08-28T17:42:19.491Z,49.79
2022-08-28T17:44:47.500Z,49.36
2022-08-28T17:47:15.853Z,49.89
2022-08-28T17:49:44.531Z,49.91
2022-08-28T17:52:12.575Z,49.90
2022-08-28T17:54:40.629Z,49.98
2022-08-28T17:57:08.709Z,49.59
2022-08-28T17:59:38.308Z,50.02
2022-08-28T18:02:06.614Z,49.67
2022-08-28T18:04:34.936Z,50.02
2022-08-28T18:07:02.995Z,50.05
2022-08-28T18:09:31.052Z,49.84
2022-08-28T18:11:59.312Z,49.99
2022-08-28T18:14:27.452Z,49.96
2022-08-28T18:16:57.033Z,49.91
2022-08-28T18:19:25.440Z,49.79
2022-08-28T18:21:53.436Z,50.14
2022-08-28T18:24:21.485Z,49.80
2022-08-28T18:26:49.507Z,49.76
2022-08-28T18:29:17.754Z,49.71
2022-08-28T18:31:46.014Z,50.10
2022-08-28T18:34:15.445Z,49.98
2022-08-28T18:36:43.700Z,50.18
2022-08-28T18:39:13.909Z,50.27
2022-08-28T18:41:45.261Z,50.16
2022-08-28T18:44:14.470Z,50.17
2022-08-28T18:46:42.741Z,50.22
2022-08-28T18:49:10.927Z,50.30
2022-08-28T18:51:40.816Z,49.90
2022-08-28T18:54:08.877Z,50.01
2022-08-28T18:56:38.239Z,49.90
2022-08-28T18:59:06.629Z,49.94
2022-08-28T19:01:34.883Z,50.17
2022-08-28T19:04:03.177Z,50.29
2022-08-28T19:06:31.223Z,50.11
2022-08-28T19:09:00.862Z,49.95
2022-08-28T19:11:31.382Z,49.99
2022-08-28T19:13:59.629Z,50.15
2022-08-28T19:16:32.680Z,50.21
2022-08-28T19:19:01.375Z,49.95
2022-08-28T19:21:29.499Z,50.19
2022-08-28T19:24:00.673Z,50.30
2022-08-28T19:26:30.339Z,50.38
2022-08-28T19:28:58.518Z,50.07
2022-08-28T19:31:28.747Z,50.09
2022-08-28T19:33:57.462Z,50.51
2022-08-28T19:36:29.596Z,50.34
2022-08-28T19:39:01.053Z,50.08
2022-08-28T19:41:30.633Z,50.22
2022-08-28T19:44:02.863Z,50.07
2022-08-28T19:46:34.389Z,50.54
2022-08-28T19:49:04.643Z,50.18
2022-08-28T19:51:33.002Z,50.22
2022-08-28T19:54:02.297Z,50.45
2022-08-28T19:56:32.512Z,50.07
2022-08-28T19:59:01.518Z,50.47
2022-08-28T20:01:31.263Z,50.50
2022-08-28T20:03:59.984Z,50.49
2022-08-28T20:06:30.547Z,50.46
2022-08-28T20:09:03.307Z,50.11
2022-08-28T20:11:35.416Z,50.08
2022-08-28T20:14:06.814Z,50.52
2022-08-28T20:16:36.420Z,50.18
2022-08-28T20:19:05.112Z,50.49
2022-08-28T20:21:37.738Z,50.33
2022-08-28T20:24:09.096Z,50.17
2022-08-28T20:26:38.476Z,50.47
2022-08-28T20:29:07.457Z,50.08
2022-08-28T20:31:35.774Z,50.38
2022-08-28T20:34:04.978Z,50.09
2022-08-28T20:36:32.952Z,50.35
2022-08-28T20:39:03.960Z,50.33
2022-08-28T20:41:35.348Z,50.22
2022-08-28T20:44:07.669Z,50.17
2022-08-28T20:46:40.017Z,50.22
2022-08-28T20:49:08.674Z,50.55
2022-08-28T20:51:59.462Z,50.11
2022-08-28T20:54:29.576Z,50.42
2022-08-28T20:56:58.456Z,50.36
2022-08-28T20:59:34.441Z,50.24
2022-08-28T21:02:07.994Z,50.44
2022-08-28T21:04:37.515Z,50.19
2022-08-28T21:07:07.720Z,50.43
2022-08-28T21:10:04.208Z,50.36
2022-08-28T21:12:24.724Z,50.33
2022-08-28T21:14:54.323Z,50.27
2022-08-28T21:17:29.858Z,50.24
2022-08-28T21:20:00.338Z,50.69
2022-08-28T21:22:29.018Z,50.55
2022-08-28T21:24:57.054Z,50.24
2022-08-28T21:27:25.108Z,50.44
2022-08-28T21:29:56.129Z,50.63
2022-08-28T21:32:24.161Z,50.63
2022-08-28T21:34:52.760Z,50.51
2022-08-28T21:37:20.814Z,50.57
2022-08-28T21:39:48.883Z,50.35
2022-08-28T21:42:16.979Z,50.20
2022-08-28T21:44:48.350Z,50.57
2022-08-28T21:47:23.027Z,50.66
2022-08-28T21:49:51.271Z,50.56
2022-08-28T21:52:19.380Z,50.67
2022-08-28T21:54:47.396Z,50.60
2022-08-28T21:57:15.466Z,50.73
2022-08-28T21:59:43.991Z,50.14
2022-08-28T22:02:12.114Z,50.29
2022-08-28T22:04:41.608Z,50.04
2022-08-28T22:07:11.194Z,50.32
2022-08-28T22:09:39.286Z,50.42
2022-08-28T22:12:08.118Z,50.31
2022-08-28T22:14:36.198Z,50.02
2022-08-28T22:17:10.180Z,49.72
2022-08-28T22:19:39.145Z,50.36
2022-08-28T22:22:26.584Z,50.21
2022-08-28T22:24:54.916Z,50.59
2022-08-28T22:27:23.063Z,50.29
2022-08-28T22:29:51.112Z,50.20
2022-08-28T22:32:22.846Z,50.09
2022-08-28T22:34:50.895Z,50.18
2022-08-28T22:37:20.218Z,50.00
2022-08-28T22:39:48.263Z,50.36
2022-08-28T22:42:16.288Z,50.04
2022-08-28T22:44:44.277Z,50.33
2022-08-28T22:47:12.320Z,49.83
2022-08-28T22:49:40.370Z,50.28
2022-08-28T22:52:10.278Z,50.30
2022-08-28T22:54:39.880Z,50.00
2022-08-28T22:57:07.851Z,50.33
2022-08-28T22:59:35.916Z,50.30
2022-08-28T23:02:04.086Z,50.00
2022-08-28T23:04:32.163Z,49.94
2022-08-28T23:07:00.211Z,49.84
2022-08-28T23:09:28.435Z,50.29
2022-08-28T23:12:00.217Z,49.86
2022-08-28T23:14:28.637Z,50.28
2022-08-28T23:16:56.773Z,50.48
2022-08-28T23:19:24.732Z,50.53
2022-08-28T23:21:53.601Z,50.48
2022-08-28T23:24:21.649Z,50.32
2022-08-28T23:26:49.692Z,50.18
2022-08-28T23:29:19.204Z,50.38
2022-08-28T23:31:47.996Z,50.03
2022-08-28T23:34:16.102Z,50.49
2022-08-28T23:36:44.117Z,50.43
2022-08-28T23:39:12.133Z,50.05
2022-08-28T23:41:40.193Z,50.35
2022-08-28T23:44:09.514Z,50.53
2022-08-28T23:46:41.546Z,50.37
2022-08-28T23:49:09.916Z,50.27
2022-08-28T23:51:38.063Z,50.50
2022-08-28T23:54:06.466Z,50.80
2022-08-28T23:56:34.524Z,50.50
2022-08-28T23:59:02.549Z,51.04
